sensor_id;sensor_type;location;lat;lon;timestamp;P1;durP1;ratioP1;P2;durP2;ratioP2
23370;SDS011;11858;51.056;3.712;2024-01-10T00:01:17;21.08;;;19.77;;
23370;SDS011;11858;51.056;3.712;2024-01-10T00:03:44;23.80;;;22.20;;
23370;SDS011;11858;51.056;3.712;2024-01-10T00:06:10;21.13;;;19.67;;
23370;SDS011;11858;51.056;3.712;2024-01-10T00:08:36;20.98;;;19.55;;
23370;SDS011;11858;51.056;3.712;2024-01-10T00:11:02;21.65;;;20.25;;
23370;SDS011;11858;51.056;3.712;2024-01-10T00:13:28;21.40;;;20.08;;
23370;SDS011;11858;51.056;3.712;2024-01-10T00:15:54;22.05;;;20.52;;
23370;SDS011;11858;51.056;3.712;2024-01-10T00:18:21;19.98;;;18.75;;
23370;SDS011;11858;51.056;3.712;2024-01-10T00:20:46;21.20;;;19.90;;
23370;SDS011;11858;51.056;3.712;2024-01-10T00:23:12;21.83;;;20.50;;
23370;SDS011;11858;51.056;3.712;2024-01-10T00:25:38;27.10;;;25.30;;
23370;SDS011;11858;51.056;3.712;2024-01-10T00:28:04;21.60;;;20.25;;
23370;SDS011;11858;51.056;3.712;2024-01-10T00:30:30;22.88;;;21.38;;
23370;SDS011;11858;51.056;3.712;2024-01-10T00:32:56;22.50;;;21.10;;
23370;SDS011;11858;51.056;3.712;2024-01-10T00:35:22;22.38;;;20.98;;
23370;SDS011;11858;51.056;3.712;2024-01-10T00:37:47;21.80;;;20.42;;
23370;SDS011;11858;51.056;3.712;2024-01-10T00:40:13;22.15;;;20.75;;
23370;SDS011;11858;51.056;3.712;2024-01-10T00:42:39;24.85;;;23.15;;
23370;SDS011;11858;51.056;3.712;2024-01-10T00:45:04;21.98;;;20.58;;
23370;SDS011;11858;51.056;3.712;2024-01-10T00:47:30;22.15;;;20.75;;
23370;SDS011;11858;51.056;3.712;2024-01-10T00:49:57;20.88;;;19.58;;
23370;SDS011;11858;51.056;3.712;2024-01-10T00:52:23;21.30;;;20.00;;
23370;SDS011;11858;51.056;3.712;2024-01-10T00:54:48;23.33;;;21.83;;
23370;SDS011;11858;51.056;3.712;2024-01-10T00:57:14;22.48;;;21.08;;
23370;SDS011;11858;51.056;3.712;2024-01-10T00:59:40;21.45;;;20.05;;
23370;SDS011;11858;51.056;3.712;2024-01-10T01:02:06;22.13;;;20.73;;
23370;SDS011;11858;51.056;3.712;2024-01-10T01:04:31;22.98;;;20.25;;
23370;SDS011;11858;51.056;3.712;2024-01-10T01:06:57;21.48;;;20.15;;
23370;SDS011;11858;51.056;3.712;2024-01-10T01:09:23;28.73;;;25.75;;
23370;SDS011;11858;51.056;3.712;2024-01-10T01:11:49;21.60;;;20.25;;
23370;SDS011;11858;51.056;3.712;2024-01-10T01:14:14;22.73;;;21.33;;
23370;SDS011;11858;51.056;3.712;2024-01-10T01:16:40;21.60;;;20.20;;
23370;SDS011;11858;51.056;3.712;2024-01-10T01:19:05;21.70;;;20.30;;
23370;SDS011;11858;51.056;3.712;2024-01-10T01:21:31;20.77;;;19.48;;
23370;SDS011;11858;51.056;3.712;2024-01-10T01:23:57;20.73;;;19.42;;
23370;SDS011;11858;51.056;3.712;2024-01-10T01:26:22;20.90;;;19.60;;
23370;SDS011;11858;51.056;3.712;2024-01-10T01:28:48;21.55;;;20.15;;
23370;SDS011;11858;51.056;3.712;2024-01-10T01:31:13;21.33;;;20.00;;
23370;SDS011;11858;51.056;3.712;2024-01-10T01:33:39;20.80;;;19.50;;
23370;SDS011;11858;51.056;3.712;2024-01-10T01:36:05;21.77;;;20.17;;
23370;SDS011;11858;51.056;3.712;2024-01-10T01:38:31;22.08;;;20.67;;
23370;SDS011;11858;51.056;3.712;2024-01-10T01:40:57;20.60;;;19.30;;
23370;SDS011;11858;51.056;3.712;2024-01-10T01:43:23;21.00;;;19.70;;
23370;SDS011;11858;51.056;3.712;2024-01-10T01:45:50;21.80;;;20.40;;
23370;SDS011;11858;51.056;3.712;2024-01-10T01:48:19;20.80;;;19.50;;
23370;SDS011;11858;51.056;3.712;2024-01-10T01:50:45;22.67;;;21.25;;
23370;SDS011;11858;51.056;3.712;2024-01-10T01:53:13;22.60;;;21.08;;
23370;SDS011;11858;51.056;3.712;2024-01-10T01:55:40;21.25;;;19.95;;
23370;SDS011;11858;51.056;3.712;2024-01-10T01:58:08;22.60;;;21.20;;
23370;SDS011;11858;51.056;3.712;2024-01-10T02:00:34;21.35;;;20.05;;
23370;SDS011;11858;51.056;3.712;2024-01-10T02:03:00;25.38;;;23.58;;
23370;SDS011;11858;51.056;3.712;2024-01-10T02:05:27;24.63;;;22.98;;
23370;SDS011;11858;51.056;3.712;2024-01-10T02:07:53;22.05;;;20.65;;
23370;SDS011;11858;51.056;3.712;2024-01-10T02:10:20;23.83;;;22.33;;
23370;SDS011;11858;51.056;3.712;2024-01-10T02:12:46;26.25;;;24.52;;
23370;SDS011;11858;51.056;3.712;2024-01-10T02:15:12;22.02;;;20.63;;
23370;SDS011;11858;51.056;3.712;2024-01-10T02:17:39;23.58;;;21.98;;
23370;SDS011;11858;51.056;3.712;2024-01-10T02:20:08;23.38;;;21.88;;
23370;SDS011;11858;51.056;3.712;2024-01-10T02:22:35;22.13;;;20.83;;
23370;SDS011;11858;51.056;3.712;2024-01-10T02:25:00;21.88;;;20.48;;
23370;SDS011;11858;51.056;3.712;2024-01-10T02:27:26;21.80;;;20.38;;
23370;SDS011;11858;51.056;3.712;2024-01-10T02:29:52;22.20;;;20.90;;
23370;SDS011;11858;51.056;3.712;2024-01-10T02:32:19;20.95;;;19.65;;
23370;SDS011;11858;51.056;3.712;2024-01-10T02:34:45;22.10;;;20.75;;
23370;SDS011;11858;51.056;3.712;2024-01-10T02:37:10;21.80;;;20.45;;
23370;SDS011;11858;51.056;3.712;2024-01-10T02:39:36;23.10;;;21.70;;
23370;SDS011;11858;51.056;3.712;2024-01-10T02:42:02;22.10;;;20.70;;
23370;SDS011;11858;51.056;3.712;2024-01-10T02:44:27;21.40;;;20.10;;
23370;SDS011;11858;51.056;3.712;2024-01-10T02:46:53;22.33;;;20.92;;
23370;SDS011;11858;51.056;3.712;2024-01-10T02:49:19;22.38;;;20.98;;
23370;SDS011;11858;51.056;3.712;2024-01-10T02:51:44;21.40;;;20.05;;
23370;SDS011;11858;51.056;3.712;2024-01-10T02:54:10;22.23;;;20.83;;
23370;SDS011;11858;51.056;3.712;2024-01-10T02:56:36;21.02;;;19.73;;
23370;SDS011;11858;51.056;3.712;2024-01-10T02:59:02;21.42;;;20.13;;
23370;SDS011;11858;51.056;3.712;2024-01-10T03:01:27;21.67;;;20.27;;
23370;SDS011;11858;51.056;3.712;2024-01-10T03:03:53;21.73;;;20.42;;
23370;SDS011;11858;51.056;3.712;2024-01-10T03:06:19;21.15;;;19.85;;
23370;SDS011;11858;51.056;3.712;2024-01-10T03:08:44;21.42;;;20.13;;
23370;SDS011;11858;51.056;3.712;2024-01-10T03:11:10;21.15;;;19.85;;
23370;SDS011;11858;51.056;3.712;2024-01-10T03:13:36;20.67;;;19.38;;
23370;SDS011;11858;51.056;3.712;2024-01-10T03:16:02;22.20;;;20.80;;
23370;SDS011;11858;51.056;3.712;2024-01-10T03:18:28;21.67;;;20.38;;
23370;SDS011;11858;51.056;3.712;2024-01-10T03:20:54;24.50;;;22.50;;
23370;SDS011;11858;51.056;3.712;2024-01-10T03:23:20;21.38;;;20.02;;
23370;SDS011;11858;51.056;3.712;2024-01-10T03:25:47;21.85;;;20.48;;
23370;SDS011;11858;51.056;3.712;2024-01-10T03:28:16;22.63;;;20.95;;
23370;SDS011;11858;51.056;3.712;2024-01-10T03:30:42;21.20;;;19.90;;
23370;SDS011;11858;51.056;3.712;2024-01-10T03:33:08;22.83;;;21.33;;
23370;SDS011;11858;51.056;3.712;2024-01-10T03:35:34;21.33;;;20.02;;
23370;SDS011;11858;51.056;3.712;2024-01-10T03:38:00;20.73;;;19.52;;
23370;SDS011;11858;51.056;3.712;2024-01-10T03:40:25;20.40;;;19.10;;
23370;SDS011;11858;51.056;3.712;2024-01-10T03:42:51;21.85;;;20.45;;
23370;SDS011;11858;51.056;3.712;2024-01-10T03:45:17;21.27;;;19.98;;
23370;SDS011;11858;51.056;3.712;2024-01-10T03:47:45;21.23;;;19.92;;
23370;SDS011;11858;51.056;3.712;2024-01-10T03:50:15;21.42;;;20.13;;
23370;SDS011;11858;51.056;3.712;2024-01-10T03:52:42;22.58;;;21.08;;
23370;SDS011;11858;51.056;3.712;2024-01-10T03:55:08;21.65;;;20.25;;
23370;SDS011;11858;51.056;3.712;2024-01-10T03:57:34;20.67;;;19.48;;
23370;SDS011;11858;51.056;3.712;2024-01-10T04:00:00;21.02;;;19.73;;
23370;SDS011;11858;51.056;3.712;2024-01-10T04:02:25;23.48;;;22.08;;
23370;SDS011;11858;51.056;3.712;2024-01-10T04:04:53;27.80;;;26.10;;
23370;SDS011;11858;51.056;3.712;2024-01-10T04:07:18;28.35;;;26.65;;
23370;SDS011;11858;51.056;3.712;2024-01-10T04:09:44;27.95;;;26.15;;
23370;SDS011;11858;51.056;3.712;2024-01-10T04:12:10;26.60;;;25.00;;
23370;SDS011;11858;51.056;3.712;2024-01-10T04:14:35;28.20;;;26.50;;
23370;SDS011;11858;51.056;3.712;2024-01-10T04:17:01;27.85;;;26.15;;
23370;SDS011;11858;51.056;3.712;2024-01-10T04:19:29;27.45;;;25.75;;
23370;SDS011;11858;51.056;3.712;2024-01-10T04:21:55;29.27;;;27.48;;
23370;SDS011;11858;51.056;3.712;2024-01-10T04:24:21;28.95;;;27.15;;
23370;SDS011;11858;51.056;3.712;2024-01-10T04:26:46;27.27;;;25.65;;
23370;SDS011;11858;51.056;3.712;2024-01-10T04:29:12;27.60;;;25.90;;
23370;SDS011;11858;51.056;3.712;2024-01-10T04:31:38;27.88;;;26.17;;
23370;SDS011;11858;51.056;3.712;2024-01-10T04:34:03;28.13;;;26.42;;
23370;SDS011;11858;51.056;3.712;2024-01-10T04:36:29;28.33;;;26.63;;
23370;SDS011;11858;51.056;3.712;2024-01-10T04:38:54;29.88;;;28.05;;
23370;SDS011;11858;51.056;3.712;2024-01-10T04:41:20;26.80;;;25.20;;
23370;SDS011;11858;51.056;3.712;2024-01-10T04:43:46;27.35;;;25.75;;
23370;SDS011;11858;51.056;3.712;2024-01-10T04:46:11;28.92;;;26.50;;
23370;SDS011;11858;51.056;3.712;2024-01-10T04:48:37;25.98;;;24.40;;
23370;SDS011;11858;51.056;3.712;2024-01-10T04:51:03;26.73;;;25.13;;
23370;SDS011;11858;51.056;3.712;2024-01-10T04:53:29;27.20;;;25.60;;
23370;SDS011;11858;51.056;3.712;2024-01-10T04:55:54;26.50;;;25.00;;
23370;SDS011;11858;51.056;3.712;2024-01-10T04:58:20;26.13;;;24.55;;
23370;SDS011;11858;51.056;3.712;2024-01-10T05:00:46;27.13;;;25.42;;
23370;SDS011;11858;51.056;3.712;2024-01-10T05:03:12;28.10;;;26.38;;
23370;SDS011;11858;51.056;3.712;2024-01-10T05:05:38;26.80;;;25.20;;
23370;SDS011;11858;51.056;3.712;2024-01-10T05:08:04;26.67;;;25.08;;
23370;SDS011;11858;51.056;3.712;2024-01-10T05:10:30;26.80;;;25.20;;
23370;SDS011;11858;51.056;3.712;2024-01-10T05:12:56;27.23;;;25.63;;
23370;SDS011;11858;51.056;3.712;2024-01-10T05:15:21;26.17;;;24.67;;
23370;SDS011;11858;51.056;3.712;2024-01-10T05:17:47;25.58;;;24.08;;
23370;SDS011;11858;51.056;3.712;2024-01-10T05:20:13;27.85;;;26.23;;
23370;SDS011;11858;51.056;3.712;2024-01-10T05:22:39;26.52;;;25.02;;
23370;SDS011;11858;51.056;3.712;2024-01-10T05:25:05;27.52;;;25.83;;
23370;SDS011;11858;51.056;3.712;2024-01-10T05:27:32;26.33;;;24.77;;
23370;SDS011;11858;51.056;3.712;2024-01-10T05:29:57;26.00;;;24.50;;
23370;SDS011;11858;51.056;3.712;2024-01-10T05:32:24;25.70;;;24.20;;
23370;SDS011;11858;51.056;3.712;2024-01-10T05:34:51;26.73;;;25.20;;
23370;SDS011;11858;51.056;3.712;2024-01-10T05:37:17;27.10;;;25.50;;
23370;SDS011;11858;51.056;3.712;2024-01-10T05:39:43;25.13;;;23.67;;
23370;SDS011;11858;51.056;3.712;2024-01-10T05:42:09;27.52;;;25.92;;
23370;SDS011;11858;51.056;3.712;2024-01-10T05:44:34;26.52;;;25.02;;
23370;SDS011;11858;51.056;3.712;2024-01-10T05:47:00;26.05;;;24.55;;
23370;SDS011;11858;51.056;3.712;2024-01-10T05:49:26;26.13;;;24.58;;
23370;SDS011;11858;51.056;3.712;2024-01-10T05:51:51;27.92;;;26.33;;
23370;SDS011;11858;51.056;3.712;2024-01-10T05:54:17;27.52;;;25.83;;
23370;SDS011;11858;51.056;3.712;2024-01-10T05:56:43;25.83;;;24.33;;
23370;SDS011;11858;51.056;3.712;2024-01-10T05:59:09;26.00;;;24.50;;
23370;SDS011;11858;51.056;3.712;2024-01-10T06:01:38;27.90;;;26.30;;
23370;SDS011;11858;51.056;3.712;2024-01-10T06:04:04;29.05;;;27.17;;
23370;SDS011;11858;51.056;3.712;2024-01-10T06:06:30;26.80;;;25.10;;
23370;SDS011;11858;51.056;3.712;2024-01-10T06:08:57;24.75;;;23.35;;
23370;SDS011;11858;51.056;3.712;2024-01-10T06:11:23;25.67;;;24.15;;
23370;SDS011;11858;51.056;3.712;2024-01-10T06:13:48;25.92;;;24.23;;
23370;SDS011;11858;51.056;3.712;2024-01-10T06:16:14;24.45;;;23.05;;
23370;SDS011;11858;51.056;3.712;2024-01-10T06:18:40;26.58;;;25.05;;
23370;SDS011;11858;51.056;3.712;2024-01-10T06:21:05;28.00;;;25.90;;
23370;SDS011;11858;51.056;3.712;2024-01-10T06:23:31;27.13;;;25.25;;
23370;SDS011;11858;51.056;3.712;2024-01-10T06:25:57;24.92;;;23.52;;
23370;SDS011;11858;51.056;3.712;2024-01-10T06:28:22;29.55;;;26.63;;
23370;SDS011;11858;51.056;3.712;2024-01-10T06:30:51;24.80;;;23.40;;
23370;SDS011;11858;51.056;3.712;2024-01-10T06:33:17;23.63;;;22.33;;
23370;SDS011;11858;51.056;3.712;2024-01-10T06:35:44;23.00;;;21.70;;
23370;SDS011;11858;51.056;3.712;2024-01-10T06:38:10;24.90;;;23.45;;
23370;SDS011;11858;51.056;3.712;2024-01-10T06:40:36;23.45;;;22.05;;
23370;SDS011;11858;51.056;3.712;2024-01-10T06:43:05;25.35;;;23.95;;
23370;SDS011;11858;51.056;3.712;2024-01-10T06:45:33;25.20;;;23.80;;
23370;SDS011;11858;51.056;3.712;2024-01-10T06:47:59;21.27;;;19.85;;
23370;SDS011;11858;51.056;3.712;2024-01-10T06:50:25;19.48;;;18.38;;
23370;SDS011;11858;51.056;3.712;2024-01-10T06:52:50;20.55;;;19.35;;
23370;SDS011;11858;51.056;3.712;2024-01-10T06:55:16;20.50;;;19.30;;
23370;SDS011;11858;51.056;3.712;2024-01-10T06:57:43;20.50;;;19.30;;
23370;SDS011;11858;51.056;3.712;2024-01-10T07:00:09;19.35;;;18.25;;
23370;SDS011;11858;51.056;3.712;2024-01-10T07:02:36;20.35;;;18.95;;
23370;SDS011;11858;51.056;3.712;2024-01-10T07:05:03;21.02;;;19.73;;
23370;SDS011;11858;51.056;3.712;2024-01-10T07:07:32;19.65;;;18.45;;
23370;SDS011;11858;51.056;3.712;2024-01-10T07:10:00;20.13;;;18.92;;
23370;SDS011;11858;51.056;3.712;2024-01-10T07:12:29;20.55;;;19.35;;
23370;SDS011;11858;51.056;3.712;2024-01-10T07:14:56;19.55;;;18.38;;
23370;SDS011;11858;51.056;3.712;2024-01-10T07:17:22;20.35;;;19.15;;
23370;SDS011;11858;51.056;3.712;2024-01-10T07:19:48;20.23;;;19.02;;
23370;SDS011;11858;51.056;3.712;2024-01-10T07:22:14;19.88;;;18.67;;
23370;SDS011;11858;51.056;3.712;2024-01-10T07:24:39;20.27;;;19.08;;
23370;SDS011;11858;51.056;3.712;2024-01-10T07:27:05;19.55;;;18.40;;
23370;SDS011;11858;51.056;3.712;2024-01-10T07:29:32;18.55;;;17.45;;
23370;SDS011;11858;51.056;3.712;2024-01-10T07:31:59;20.70;;;19.50;;
23370;SDS011;11858;51.056;3.712;2024-01-10T07:34:25;19.48;;;18.33;;
23370;SDS011;11858;51.056;3.712;2024-01-10T07:36:50;19.20;;;18.10;;
23370;SDS011;11858;51.056;3.712;2024-01-10T07:39:16;19.65;;;18.55;;
23370;SDS011;11858;51.056;3.712;2024-01-10T07:41:45;20.98;;;19.42;;
23370;SDS011;11858;51.056;3.712;2024-01-10T07:44:11;18.20;;;17.20;;
23370;SDS011;11858;51.056;3.712;2024-01-10T07:46:37;19.52;;;18.42;;
23370;SDS011;11858;51.056;3.712;2024-01-10T07:49:05;20.02;;;18.83;;
23370;SDS011;11858;51.056;3.712;2024-01-10T07:51:31;20.67;;;19.30;;
23370;SDS011;11858;51.056;3.712;2024-01-10T07:53:57;19.23;;;18.13;;
23370;SDS011;11858;51.056;3.712;2024-01-10T07:56:24;19.85;;;18.65;;
23370;SDS011;11858;51.056;3.712;2024-01-10T07:58:50;21.35;;;19.95;;
23370;SDS011;11858;51.056;3.712;2024-01-10T08:01:16;19.90;;;18.70;;
23370;SDS011;11858;51.056;3.712;2024-01-10T08:03:42;20.40;;;19.20;;
23370;SDS011;11858;51.056;3.712;2024-01-10T08:06:08;18.85;;;17.70;;
23370;SDS011;11858;51.056;3.712;2024-01-10T08:08:35;19.50;;;18.30;;
23370;SDS011;11858;51.056;3.712;2024-01-10T08:11:01;19.40;;;18.20;;
23370;SDS011;11858;51.056;3.712;2024-01-10T08:13:27;20.30;;;19.10;;
23370;SDS011;11858;51.056;3.712;2024-01-10T08:15:53;20.17;;;18.98;;
23370;SDS011;11858;51.056;3.712;2024-01-10T08:18:19;20.25;;;19.05;;
23370;SDS011;11858;51.056;3.712;2024-01-10T08:20:45;21.50;;;20.10;;
23370;SDS011;11858;51.056;3.712;2024-01-10T08:23:10;20.25;;;19.02;;
23370;SDS011;11858;51.056;3.712;2024-01-10T08:25:36;20.60;;;19.20;;
23370;SDS011;11858;51.056;3.712;2024-01-10T08:28:03;19.33;;;18.13;;
23370;SDS011;11858;51.056;3.712;2024-01-10T08:30:29;20.63;;;19.33;;
23370;SDS011;11858;51.056;3.712;2024-01-10T08:32:54;20.05;;;18.85;;
23370;SDS011;11858;51.056;3.712;2024-01-10T08:35:20;21.90;;;20.50;;
23370;SDS011;11858;51.056;3.712;2024-01-10T08:37:46;20.98;;;19.67;;
23370;SDS011;11858;51.056;3.712;2024-01-10T08:40:11;22.08;;;20.70;;
23370;SDS011;11858;51.056;3.712;2024-01-10T08:42:39;20.60;;;19.30;;
23370;SDS011;11858;51.056;3.712;2024-01-10T08:45:09;20.25;;;19.00;;
23370;SDS011;11858;51.056;3.712;2024-01-10T08:47:36;22.02;;;20.63;;
23370;SDS011;11858;51.056;3.712;2024-01-10T08:50:02;20.77;;;19.48;;
23370;SDS011;11858;51.056;3.712;2024-01-10T08:52:30;21.42;;;20.02;;
23370;SDS011;11858;51.056;3.712;2024-01-10T08:54:56;22.60;;;21.10;;
23370;SDS011;11858;51.056;3.712;2024-01-10T08:57:22;20.35;;;19.05;;
23370;SDS011;11858;51.056;3.712;2024-01-10T08:59:47;20.02;;;18.83;;
23370;SDS011;11858;51.056;3.712;2024-01-10T09:02:14;21.33;;;20.02;;
23370;SDS011;11858;51.056;3.712;2024-01-10T09:04:39;19.10;;;18.00;;
23370;SDS011;11858;51.056;3.712;2024-01-10T09:07:06;19.75;;;18.55;;
23370;SDS011;11858;51.056;3.712;2024-01-10T09:09:32;20.38;;;19.17;;
23370;SDS011;11858;51.056;3.712;2024-01-10T09:11:57;18.80;;;17.70;;
23370;SDS011;11858;51.056;3.712;2024-01-10T09:14:25;21.08;;;19.73;;
23370;SDS011;11858;51.056;3.712;2024-01-10T09:16:50;20.35;;;19.15;;
23370;SDS011;11858;51.056;3.712;2024-01-10T09:19:17;20.60;;;19.27;;
23370;SDS011;11858;51.056;3.712;2024-01-10T09:21:43;20.50;;;19.23;;
23370;SDS011;11858;51.056;3.712;2024-01-10T09:24:08;20.27;;;18.98;;
23370;SDS011;11858;51.056;3.712;2024-01-10T09:26:36;20.27;;;19.08;;
23370;SDS011;11858;51.056;3.712;2024-01-10T09:29:01;25.75;;;23.98;;
23370;SDS011;11858;51.056;3.712;2024-01-10T09:31:27;19.85;;;18.65;;
23370;SDS011;11858;51.056;3.712;2024-01-10T09:33:53;21.45;;;19.50;;
23370;SDS011;11858;51.056;3.712;2024-01-10T09:36:18;21.08;;;19.77;;
23370;SDS011;11858;51.056;3.712;2024-01-10T09:38:44;20.20;;;19.00;;
23370;SDS011;11858;51.056;3.712;2024-01-10T09:41:10;22.38;;;20.98;;
23370;SDS011;11858;51.056;3.712;2024-01-10T09:43:38;21.55;;;20.25;;
23370;SDS011;11858;51.056;3.712;2024-01-10T09:46:04;22.50;;;21.08;;
23370;SDS011;11858;51.056;3.712;2024-01-10T09:48:32;20.73;;;19.42;;
23370;SDS011;11858;51.056;3.712;2024-01-10T09:50:58;20.77;;;19.48;;
23370;SDS011;11858;51.056;3.712;2024-01-10T09:53:25;22.27;;;20.77;;
23370;SDS011;11858;51.056;3.712;2024-01-10T09:55:52;20.45;;;19.15;;
23370;SDS011;11858;51.056;3.712;2024-01-10T09:58:24;20.10;;;18.90;;
23370;SDS011;11858;51.056;3.712;2024-01-10T10:00:50;19.92;;;18.73;;
23370;SDS011;11858;51.056;3.712;2024-01-10T10:03:17;20.42;;;19.23;;
23370;SDS011;11858;51.056;3.712;2024-01-10T10:05:43;19.67;;;18.52;;
23370;SDS011;11858;51.056;3.712;2024-01-10T10:08:13;20.23;;;19.02;;
23370;SDS011;11858;51.056;3.712;2024-01-10T10:10:48;19.85;;;18.60;;
23370;SDS011;11858;51.056;3.712;2024-01-10T10:13:27;18.30;;;17.20;;
23370;SDS011;11858;51.056;3.712;2024-01-10T10:15:57;20.67;;;19.08;;
23370;SDS011;11858;51.056;3.712;2024-01-10T10:18:24;18.38;;;17.27;;
23370;SDS011;11858;51.056;3.712;2024-01-10T10:21:05;19.85;;;18.65;;
23370;SDS011;11858;51.056;3.712;2024-01-10T10:23:33;19.15;;;18.02;;
23370;SDS011;11858;51.056;3.712;2024-01-10T10:25:58;20.52;;;19.23;;
23370;SDS011;11858;51.056;3.712;2024-01-10T10:28:34;20.10;;;18.35;;
23370;SDS011;11858;51.056;3.712;2024-01-10T10:31:00;20.63;;;19.02;;
23370;SDS011;11858;51.056;3.712;2024-01-10T10:33:25;18.60;;;17.50;;
23370;SDS011;11858;51.056;3.712;2024-01-10T10:35:51;21.30;;;19.63;;
23370;SDS011;11858;51.056;3.712;2024-01-10T10:38:17;20.45;;;18.98;;
23370;SDS011;11858;51.056;3.712;2024-01-10T10:40:42;19.10;;;17.90;;
23370;SDS011;11858;51.056;3.712;2024-01-10T10:43:10;18.70;;;17.60;;
23370;SDS011;11858;51.056;3.712;2024-01-10T10:45:43;19.23;;;18.02;;
23370;SDS011;11858;51.056;3.712;2024-01-10T10:48:13;21.42;;;20.00;;
23370;SDS011;11858;51.056;3.712;2024-01-10T10:50:42;19.33;;;18.13;;
23370;SDS011;11858;51.056;3.712;2024-01-10T10:53:15;19.92;;;18.35;;
23370;SDS011;11858;51.056;3.712;2024-01-10T10:55:43;21.08;;;19.40;;
23370;SDS011;11858;51.056;3.712;2024-01-10T10:58:11;18.90;;;17.70;;
23370;SDS011;11858;51.056;3.712;2024-01-10T11:00:38;20.95;;;19.58;;
23370;SDS011;11858;51.056;3.712;2024-01-10T11:03:07;17.83;;;16.83;;
23370;SDS011;11858;51.056;3.712;2024-01-10T11:05:36;19.65;;;18.30;;
23370;SDS011;11858;51.056;3.712;2024-01-10T11:08:06;20.20;;;18.80;;
23370;SDS011;11858;51.056;3.712;2024-01-10T11:10:39;20.95;;;19.27;;
23370;SDS011;11858;51.056;3.712;2024-01-10T11:13:13;18.27;;;17.17;;
23370;SDS011;11858;51.056;3.712;2024-01-10T11:16:12;18.58;;;17.45;;
23370;SDS011;11858;51.056;3.712;2024-01-10T11:23:42;18.63;;;17.42;;
23370;SDS011;11858;51.056;3.712;2024-01-10T11:26:11;19.85;;;18.45;;
23370;SDS011;11858;51.056;3.712;2024-01-10T11:28:39;19.02;;;17.45;;
23370;SDS011;11858;51.056;3.712;2024-01-10T11:31:05;18.42;;;17.23;;
23370;SDS011;11858;51.056;3.712;2024-01-10T11:33:34;17.80;;;16.80;;
23370;SDS011;11858;51.056;3.712;2024-01-10T11:41:38;20.27;;;18.67;;
23370;SDS011;11858;51.056;3.712;2024-01-10T11:49:17;18.58;;;17.48;;
23370;SDS011;11858;51.056;3.712;2024-01-10T11:51:48;23.25;;;21.20;;
23370;SDS011;11858;51.056;3.712;2024-01-10T11:57:10;19.98;;;18.77;;
23370;SDS011;11858;51.056;3.712;2024-01-10T11:59:37;22.23;;;20.50;;
23370;SDS011;11858;51.056;3.712;2024-01-10T12:02:11;17.85;;;16.77;;
23370;SDS011;11858;51.056;3.712;2024-01-10T12:04:40;17.60;;;16.55;;
23370;SDS011;11858;51.056;3.712;2024-01-10T12:07:06;18.95;;;17.75;;
23370;SDS011;11858;51.056;3.712;2024-01-10T12:09:36;20.50;;;18.83;;
23370;SDS011;11858;51.056;3.712;2024-01-10T12:12:05;19.88;;;18.58;;
23370;SDS011;11858;51.056;3.712;2024-01-10T12:14:31;19.13;;;17.77;;
23370;SDS011;11858;51.056;3.712;2024-01-10T12:16:57;18.33;;;17.23;;
23370;SDS011;11858;51.056;3.712;2024-01-10T12:19:24;18.80;;;17.67;;
23370;SDS011;11858;51.056;3.712;2024-01-10T12:21:49;18.15;;;17.05;;
23370;SDS011;11858;51.056;3.712;2024-01-10T12:24:15;19.67;;;18.48;;
23370;SDS011;11858;51.056;3.712;2024-01-10T12:26:45;21.20;;;17.63;;
23370;SDS011;11858;51.056;3.712;2024-01-10T12:29:11;18.60;;;17.50;;
23370;SDS011;11858;51.056;3.712;2024-01-10T12:31:37;20.50;;;18.80;;
23370;SDS011;11858;51.056;3.712;2024-01-10T12:34:04;17.83;;;16.73;;
23370;SDS011;11858;51.056;3.712;2024-01-10T12:36:32;17.10;;;16.10;;
23370;SDS011;11858;51.056;3.712;2024-01-10T12:38:58;19.67;;;18.30;;
23370;SDS011;11858;51.056;3.712;2024-01-10T12:41:23;17.02;;;16.02;;
23370;SDS011;11858;51.056;3.712;2024-01-10T12:43:49;19.55;;;18.05;;
23370;SDS011;11858;51.056;3.712;2024-01-10T12:46:17;18.85;;;17.63;;
23370;SDS011;11858;51.056;3.712;2024-01-10T12:48:43;18.38;;;17.27;;
23370;SDS011;11858;51.056;3.712;2024-01-10T12:51:09;18.10;;;17.00;;
23370;SDS011;11858;51.056;3.712;2024-01-10T12:53:36;18.63;;;17.42;;
23370;SDS011;11858;51.056;3.712;2024-01-10T12:56:09;20.42;;;18.70;;
23370;SDS011;11858;51.056;3.712;2024-01-10T12:58:39;18.52;;;17.35;;
23370;SDS011;11858;51.056;3.712;2024-01-10T13:01:10;17.80;;;16.70;;
23370;SDS011;11858;51.056;3.712;2024-01-10T13:03:37;20.67;;;19.13;;
23370;SDS011;11858;51.056;3.712;2024-01-10T13:06:04;19.48;;;18.08;;
23370;SDS011;11858;51.056;3.712;2024-01-10T13:08:30;18.45;;;17.10;;
23370;SDS011;11858;51.056;3.712;2024-01-10T13:10:57;19.38;;;18.08;;
23370;SDS011;11858;51.056;3.712;2024-01-10T13:13:24;17.15;;;16.15;;
23370;SDS011;11858;51.056;3.712;2024-01-10T13:15:50;17.35;;;16.35;;
23370;SDS011;11858;51.056;3.712;2024-01-10T13:18:16;19.48;;;17.92;;
23370;SDS011;11858;51.056;3.712;2024-01-10T13:20:43;17.13;;;16.13;;
23370;SDS011;11858;51.056;3.712;2024-01-10T13:23:08;19.05;;;17.67;;
23370;SDS011;11858;51.056;3.712;2024-01-10T13:25:35;17.50;;;16.42;;
23370;SDS011;11858;51.056;3.712;2024-01-10T13:28:02;17.98;;;16.88;;
23370;SDS011;11858;51.056;3.712;2024-01-10T13:30:30;18.67;;;17.35;;
23370;SDS011;11858;51.056;3.712;2024-01-10T13:32:56;19.88;;;18.58;;
23370;SDS011;11858;51.056;3.712;2024-01-10T13:35:23;22.80;;;21.00;;
23370;SDS011;11858;51.056;3.712;2024-01-10T13:37:49;21.65;;;18.55;;
23370;SDS011;11858;51.056;3.712;2024-01-10T13:40:14;18.55;;;17.42;;
23370;SDS011;11858;51.056;3.712;2024-01-10T13:42:41;18.10;;;17.05;;
23370;SDS011;11858;51.056;3.712;2024-01-10T13:45:10;18.10;;;17.00;;
23370;SDS011;11858;51.056;3.712;2024-01-10T13:47:37;19.02;;;17.65;;
23370;SDS011;11858;51.056;3.712;2024-01-10T13:50:03;18.13;;;17.02;;
23370;SDS011;11858;51.056;3.712;2024-01-10T13:52:30;17.13;;;16.15;;
23370;SDS011;11858;51.056;3.712;2024-01-10T13:55:00;18.08;;;16.98;;
23370;SDS011;11858;51.056;3.712;2024-01-10T13:57:26;21.13;;;18.13;;
23370;SDS011;11858;51.056;3.712;2024-01-10T13:59:52;18.40;;;17.17;;
23370;SDS011;11858;51.056;3.712;2024-01-10T14:02:24;18.33;;;17.23;;
23370;SDS011;11858;51.056;3.712;2024-01-10T14:04:50;19.60;;;18.40;;
23370;SDS011;11858;51.056;3.712;2024-01-10T14:07:16;18.15;;;17.05;;
23370;SDS011;11858;51.056;3.712;2024-01-10T14:09:42;20.10;;;18.52;;
23370;SDS011;11858;51.056;3.712;2024-01-10T14:12:08;17.67;;;16.67;;
23370;SDS011;11858;51.056;3.712;2024-01-10T14:14:34;18.70;;;17.45;;
23370;SDS011;11858;51.056;3.712;2024-01-10T14:17:00;18.85;;;17.75;;
23370;SDS011;11858;51.056;3.712;2024-01-10T14:19:25;17.63;;;16.63;;
23370;SDS011;11858;51.056;3.712;2024-01-10T14:21:51;22.00;;;20.45;;
23370;SDS011;11858;51.056;3.712;2024-01-10T14:24:17;18.90;;;17.70;;
23370;SDS011;11858;51.056;3.712;2024-01-10T14:26:43;19.88;;;18.67;;
23370;SDS011;11858;51.056;3.712;2024-01-10T14:29:09;18.48;;;17.38;;
23370;SDS011;11858;51.056;3.712;2024-01-10T14:31:35;19.00;;;17.90;;
23370;SDS011;11858;51.056;3.712;2024-01-10T14:34:01;18.58;;;17.48;;
23370;SDS011;11858;51.056;3.712;2024-01-10T14:36:28;19.10;;;17.98;;